San Miguel de Salinas, Spain
Current Conditions -  °F | °C
As of 3:00 PM on Monday 20 Oct 2014 (Local Time) from LELC Reporting Station
Few Clouds Few Clouds  
Wind Chill: 75°   Ceiling: Unl
Heat Index: 75°   Visibility: 6mi
Dew Point: 68°   Wind: 9mph
Humidity: 78%   Direction: 60°ENE
Pressure: 30.15"   Gusts: NA
Location:  37.98°N, 0.79°W
Report Text: LELC 201300Z 06008KT 020V100 9999 FEW011 24/20 Q1021 NOSIG
Loading
Personal Weather Stations






























Interactive Weather Map
Tropical Storm Tracking
New forecast layout! Learn more

10-Day Weather Forecast

Advertisements
Track Severe Weather on mobile